Kidwelly, United Kingdom
Current Conditions -  °F | °C
As of 8:50 AM on Tuesday 21 Oct 2014 (Local Time) from EGOP Reporting Station
Few Clouds Few Clouds  
Wind Chill: 52°   Ceiling: Unl
Heat Index: 52°   Visibility: 6mi
Dew Point: 43°   Wind: 35mph
Humidity: 71%   Direction: 280°W
Pressure: 29.74"   Gusts: NA
Location:  51.74°N, 4.3°W
Report Text: EGOP 210750Z 28030KT 9999 FEW025 11/06 Q1007 BLU
Loading
Personal Weather Stations






























Interactive Weather Map
Tropical Storm Tracking
New forecast layout! Learn more

10-Day Weather Forecast

Advertisements
Track Severe Weather on mobile